»·PEaware :: FDX250 KRNO-KSAN

FDX250 :: KRNO-KSAN

FLIGHT INFORMATION

Flight Status: Arrived
Operator:
Federal Express
More flights by this operator :: More flights under this callsign
Pilot: Anonymous 14085 (14085)
Aircraft: BOEING 727-200
(B722)
More flights by this aircraft type
Origin: KRNO Reno/Tahoe Intl
United States
Destination: KSAN San Diego Intl-Lindbergh
United States
More flights between these airports :: More routes between these airports
Route: +RENO9 FMG DARBI EHF LAX BAYVU5
File this flight plan on PilotEdge
Remarks:
Altitude:
(Current/Filed)
33,000ft
Speed:
(Current/Filed)
480kts
Departed: 24-Jan-17 08:51 PM
Arrived: 24-Jan-17 09:58 PM
Distance/Time
Traveled:
425nm/1:07
Distance/Time
To Go:
Arrived

Flight Plot

Page will automatically refresh every two minutes.


Map Options




Map Legend


Flown Route
Filed Route
Departure Airport
Arrival Airport
Navaid (VOR, NDB)
Fix

Horizontal Profiles

Position Reports

Time Latitude Longitude Heading Altitude Ground
Speed
24-Jan-17 19:57 39.509647 -119.772930 330 4427ft 0kts
24-Jan-17 19:58 39.509647 -119.772930 330 4427ft 0kts
24-Jan-17 19:59 39.509647 -119.772930 330 4427ft 0kts
24-Jan-17 20:00 39.509647 -119.772930 330 4427ft 0kts
24-Jan-17 20:01 39.509647 -119.772930 330 4427ft 0kts
24-Jan-17 20:02 39.509647 -119.772930 330 4427ft 0kts
24-Jan-17 20:03 39.509647 -119.772930 330 4427ft 0kts
24-Jan-17 20:04 39.509647 -119.772930 330 4427ft 0kts
24-Jan-17 20:05 39.509647 -119.772930 330 4427ft 0kts
24-Jan-17 20:06 39.509647 -119.772930 330 4427ft 0kts
24-Jan-17 20:07 39.509647 -119.772930 330 4427ft 0kts
24-Jan-17 20:08 39.509647 -119.772930 330 4427ft 0kts
24-Jan-17 20:09 39.509647 -119.772930 330 4427ft 0kts
24-Jan-17 20:10 39.509647 -119.772930 330 4427ft 0kts
24-Jan-17 20:11 39.509647 -119.772930 330 4427ft 0kts
24-Jan-17 20:12 39.509647 -119.772930 330 4427ft 0kts
24-Jan-17 20:13 39.509647 -119.772930 330 4427ft 0kts
24-Jan-17 20:14 39.509647 -119.772930 330 4427ft 0kts
24-Jan-17 20:15 39.509647 -119.772930 330 4427ft 0kts
24-Jan-17 20:16 39.509647 -119.772930 330 4427ft 0kts
24-Jan-17 20:17 39.509647 -119.772930 330 4427ft 0kts
24-Jan-17 20:18 39.509647 -119.772930 330 4427ft 0kts
24-Jan-17 20:19 39.509647 -119.772930 330 4427ft 0kts
24-Jan-17 20:20 39.509647 -119.772930 330 4427ft 0kts
24-Jan-17 20:21 39.509647 -119.772930 330 4427ft 0kts
24-Jan-17 20:22 39.509647 -119.772930 330 4427ft 0kts
24-Jan-17 20:23 39.509647 -119.772930 330 4427ft 0kts
24-Jan-17 20:24 39.509647 -119.772930 330 4427ft 0kts
24-Jan-17 20:25 39.509637 -119.772939 330 4427ft 0kts
24-Jan-17 20:27 39.509631 -119.772928 330 4427ft 0kts
24-Jan-17 20:28 39.509631 -119.772928 330 4427ft 0kts
24-Jan-17 20:29 39.509631 -119.772928 330 4427ft 0kts
24-Jan-17 20:30 39.509631 -119.772928 330 4427ft 0kts
24-Jan-17 20:31 39.509631 -119.772928 330 4427ft 0kts
24-Jan-17 20:32 39.509631 -119.772928 330 4427ft 0kts
24-Jan-17 20:33 39.509631 -119.772928 330 4427ft 0kts
24-Jan-17 20:34 39.509631 -119.772928 330 4427ft 0kts
24-Jan-17 20:35 39.509631 -119.772928 330 4427ft 0kts
24-Jan-17 20:36 39.509631 -119.772928 330 4427ft 0kts
24-Jan-17 20:37 39.509631 -119.772928 330 4427ft 0kts
24-Jan-17 20:38 39.509631 -119.772928 330 4427ft 0kts
24-Jan-17 20:39 39.509631 -119.772928 330 4427ft 0kts
24-Jan-17 20:40 39.509631 -119.772928 330 4427ft 0kts
24-Jan-17 20:41 39.509631 -119.772928 330 4427ft 0kts
24-Jan-17 20:42 39.509631 -119.772928 330 4427ft 0kts
24-Jan-17 20:43 39.509254 -119.772858 52 4427ft 4kts
24-Jan-17 20:44 39.509130 -119.773192 93 4427ft 0kts
24-Jan-17 20:45 39.507074 -119.771494 179 4427ft 17kts
24-Jan-17 20:46 39.501289 -119.771501 179 4427ft 18kts
24-Jan-17 20:47 39.495255 -119.771537 181 4427ft 33kts
24-Jan-17 20:48 39.488016 -119.771542 180 4427ft 19kts
24-Jan-17 20:49 39.483777 -119.770681 90 4427ft 0kts
24-Jan-17 20:50 39.484514 -119.769293 358 4427ft 27kts
24-Jan-17 20:51 39.520445 -119.766024 9 4900ft 195kts
24-Jan-17 20:52 39.585422 -119.759798 0 6861ft 264kts
24-Jan-17 20:53 39.658148 -119.757071 0 10203ft 272kts
24-Jan-17 20:54 39.738209 -119.771927 319 12479ft 311kts
24-Jan-17 20:55 39.743192 -119.881077 238 14889ft 350kts
24-Jan-17 20:56 39.652109 -119.908419 151 16915ft 379kts
24-Jan-17 20:57 39.560266 -119.835479 146 18635ft 399kts
24-Jan-17 20:58 39.459830 -119.772516 172 20363ft 414kts
24-Jan-17 20:59 39.344898 -119.764315 179 21902ft 426kts
24-Jan-17 21:00 39.225579 -119.760429 179 23343ft 437kts
24-Jan-17 21:01 39.102520 -119.756539 180 24663ft 448kts
24-Jan-17 21:02 38.977343 -119.752606 179 26151ft 452kts
24-Jan-17 21:03 38.850337 -119.748595 179 27361ft 464kts
24-Jan-17 21:04 38.720571 -119.744522 180 28502ft 474kts
24-Jan-17 21:05 38.588257 -119.740402 180 29602ft 482kts
24-Jan-17 21:06 38.452881 -119.736192 180 30569ft 491kts
24-Jan-17 21:07 38.318913 -119.732039 180 31454ft 497kts
24-Jan-17 21:08 38.181400 -119.703930 171 32282ft 504kts
24-Jan-17 21:09 38.043095 -119.671729 171 32958ft 512kts
24-Jan-17 21:10 37.900343 -119.638641 171 32998ft 534kts
24-Jan-17 21:11 37.752153 -119.604418 171 33021ft 554kts
24-Jan-17 21:12 37.598817 -119.569135 171 33031ft 570kts
24-Jan-17 21:13 37.443579 -119.533566 171 33081ft 577kts
24-Jan-17 21:14 37.287949 -119.498081 171 33060ft 574kts
24-Jan-17 21:15 37.131649 -119.462563 171 33065ft 572kts
24-Jan-17 21:16 36.975649 -119.427193 173 33073ft 570kts
24-Jan-17 21:17 36.820158 -119.392257 173 33094ft 569kts
24-Jan-17 21:18 36.665200 -119.357490 173 33116ft 568kts
24-Jan-17 21:19 36.509933 -119.322807 173 33101ft 568kts
24-Jan-17 21:20 36.357419 -119.288882 173 33065ft 568kts
24-Jan-17 21:21 36.202323 -119.254504 173 33068ft 567kts
24-Jan-17 21:22 36.073468 -119.226048 173 33068ft 567kts
24-Jan-17 21:23 35.918930 -119.192042 173 33075ft 567kts
24-Jan-17 21:24 35.764176 -119.158147 173 33112ft 566kts
24-Jan-17 21:25 35.609453 -119.124363 173 33109ft 570kts
24-Jan-17 21:26 35.455056 -119.084111 163 33097ft 574kts
24-Jan-17 21:27 35.308482 -119.020613 162 33056ft 574kts
24-Jan-17 21:28 35.158770 -118.955539 162 33076ft 571kts
24-Jan-17 21:29 35.012413 -118.892104 163 33042ft 568kts
24-Jan-17 21:30 34.864714 -118.827890 166 33002ft 565kts
24-Jan-17 21:31 34.717252 -118.764682 166 33029ft 562kts
24-Jan-17 21:32 34.570892 -118.702029 166 33062ft 558kts
24-Jan-17 21:33 34.427706 -118.640965 166 33067ft 555kts
24-Jan-17 21:34 34.282845 -118.579421 166 33029ft 553kts
24-Jan-17 21:35 34.139199 -118.518614 166 32715ft 553kts
24-Jan-17 21:36 33.994400 -118.457547 166 31868ft 557kts
24-Jan-17 21:37 33.865956 -118.353987 124 29584ft 584kts
24-Jan-17 21:38 33.761151 -118.211516 134 27151ft 560kts
24-Jan-17 21:39 33.656720 -118.078230 134 24752ft 541kts
24-Jan-17 21:40 33.558729 -117.952894 131 24120ft 490kts
24-Jan-17 21:41 33.467353 -117.837476 134 21103ft 492kts
24-Jan-17 21:42 33.377472 -117.724161 134 17910ft 489kts
24-Jan-17 21:43 33.285009 -117.607802 133 14916ft 470kts
24-Jan-17 21:44 33.194077 -117.518043 144 14975ft 388kts
24-Jan-17 21:45 33.113381 -117.449785 147 14560ft 342kts
24-Jan-17 21:46 33.032670 -117.385218 147 12199ft 361kts
24-Jan-17 21:47 32.953254 -117.322060 146 9755ft 345kts
24-Jan-17 21:48 32.880123 -117.263779 146 8069ft 270kts
24-Jan-17 21:49 32.822733 -117.218022 145 6113ft 243kts
24-Jan-17 21:50 32.797061 -117.153608 98 5447ft 221kts
24-Jan-17 21:51 32.784494 -117.081265 100 5053ft 227kts
24-Jan-17 21:52 32.771187 -117.005221 103 5071ft 248kts
24-Jan-17 21:53 32.725755 -116.964841 202 3904ft 214kts
24-Jan-17 21:54 32.690461 -117.015087 248 2621ft 190kts
24-Jan-17 21:55 32.703149 -117.075644 288 2146ft 190kts
24-Jan-17 21:56 32.717481 -117.129216 288 1103ft 155kts
24-Jan-17 21:57 32.729782 -117.174429 286 130ft 134kts
24-Jan-17 21:58 32.733994 -117.190818 342 29ft 0kts
24-Jan-17 21:59 32.734738 -117.189888 97 29ft 5kts
24-Jan-17 22:00 32.733526 -117.184451 76 29ft 13kts
24-Jan-17 22:01 32.736863 -117.185084 352 29ft 2kts
24-Jan-17 22:02 32.736851 -117.185082 352 29ft 0kts
24-Jan-17 22:03 32.736851 -117.185082 352 29ft 0kts

Navigation Log

Ident Type
1. KRNO Airport
2. RENO9.FMG Navaid
3. DARBI Fix
4. EHF Navaid
5. LAX Navaid
6. OTISS Fix
7. HUBRD Fix
8. BAYVU Fix
9. LCOVE Fix
10. STEPN Fix
11. KLOMN Fix
12. NADDO Fix
13. KSAN Airport